createdAt,value
2018-11-14T00:00:32.375Z,57.86
2018-11-14T00:03:01.588Z,58.18
2018-11-14T00:05:29.654Z,58.28
2018-11-14T00:07:58.537Z,58.22
2018-11-14T00:10:26.551Z,58.00
2018-11-14T00:12:54.606Z,57.44
2018-11-14T00:15:23.910Z,57.11
2018-11-14T00:17:52.292Z,57.34
2018-11-14T00:20:20.395Z,57.20
2018-11-14T00:22:49.322Z,57.01
2018-11-14T00:25:17.503Z,57.35
2018-11-14T00:27:45.554Z,57.84
2018-11-14T00:30:15.729Z,57.50
2018-11-14T00:32:43.930Z,57.88
2018-11-14T00:35:12.342Z,57.27
2018-11-14T00:37:40.601Z,58.06
2018-11-14T00:40:09.975Z,57.90
2018-11-14T00:42:38.061Z,57.74
2018-11-14T00:45:07.591Z,57.56
2018-11-14T00:47:35.666Z,57.15
2018-11-14T00:50:03.952Z,57.62
2018-11-14T00:52:32.084Z,56.99
2018-11-14T00:55:00.203Z,57.76
2018-11-14T00:57:28.332Z,57.01
2018-11-14T00:59:56.531Z,57.38
2018-11-14T01:02:24.641Z,57.00
2018-11-14T01:04:52.765Z,57.38
2018-11-14T01:07:20.949Z,56.89
2018-11-14T01:09:49.074Z,57.81
2018-11-14T01:12:17.216Z,57.61
2018-11-14T01:14:45.336Z,57.48
2018-11-14T01:17:13.509Z,57.26
2018-11-14T01:19:41.524Z,57.15
2018-11-14T01:22:09.608Z,57.58
2018-11-14T01:24:37.684Z,57.29
2018-11-14T01:27:05.805Z,57.02
2018-11-14T01:29:33.965Z,57.38
2018-11-14T01:32:02.081Z,58.00
2018-11-14T01:34:30.197Z,57.86
2018-11-14T01:36:58.357Z,57.69
2018-11-14T01:39:26.438Z,57.11
2018-11-14T01:41:54.581Z,57.62
2018-11-14T01:44:22.781Z,57.14
2018-11-14T01:46:50.898Z,58.04
2018-11-14T01:49:19.037Z,57.45
2018-11-14T01:51:47.128Z,57.10
2018-11-14T01:54:15.244Z,57.42
2018-11-14T01:56:43.412Z,57.05
2018-11-14T01:59:11.499Z,57.22
2018-11-14T02:01:39.567Z,57.26
2018-11-14T02:04:07.685Z,57.46
2018-11-14T02:06:35.797Z,57.55
2018-11-14T02:09:04.956Z,57.54
2018-11-14T02:11:33.096Z,58.09
2018-11-14T02:14:01.240Z,58.06
2018-11-14T02:16:29.296Z,58.16
2018-11-14T02:18:57.364Z,57.49
2018-11-14T02:21:25.407Z,57.03
2018-11-14T02:23:53.497Z,57.38
2018-11-14T02:26:21.530Z,56.80
2018-11-14T02:28:50.973Z,57.37
2018-11-14T02:31:19.103Z,57.77
2018-11-14T02:33:47.177Z,57.45
2018-11-14T02:36:15.256Z,57.55
2018-11-14T02:38:43.338Z,58.30
2018-11-14T02:41:11.452Z,57.43
2018-11-14T02:43:39.510Z,57.36
2018-11-14T02:46:07.570Z,57.28
2018-11-14T02:48:35.596Z,58.10
2018-11-14T02:51:14.826Z,57.26
2018-11-14T02:53:43.002Z,57.66
2018-11-14T02:56:11.636Z,57.22
2018-11-14T02:58:39.690Z,57.36
2018-11-14T03:01:08.144Z,57.28
2018-11-14T03:03:36.468Z,57.74
2018-11-14T03:06:04.682Z,56.52
2018-11-14T03:08:32.832Z,57.01
2018-11-14T03:11:00.916Z,56.90
2018-11-14T03:13:28.950Z,57.01
2018-11-14T03:15:57.078Z,57.59
2018-11-14T03:18:25.183Z,56.87
2018-11-14T03:20:53.347Z,57.36
2018-11-14T03:23:21.722Z,57.10
2018-11-14T03:25:49.901Z,57.89
2018-11-14T03:28:17.989Z,56.83
2018-11-14T03:30:46.089Z,57.32
2018-11-14T03:33:14.202Z,57.20
2018-11-14T03:35:47.700Z,57.41
2018-11-14T03:38:15.843Z,56.81
2018-11-14T03:40:44.055Z,57.38
2018-11-14T03:43:12.144Z,57.81
2018-11-14T03:45:40.230Z,58.06
2018-11-14T03:48:08.340Z,57.49
2018-11-14T03:50:36.441Z,57.83
2018-11-14T03:53:04.985Z,57.47
2018-11-14T03:55:33.120Z,58.25
2018-11-14T03:58:01.276Z,57.63
2018-11-14T04:00:29.352Z,57.78
2018-11-14T04:02:57.524Z,57.80
2018-11-14T04:05:25.782Z,57.90
2018-11-14T04:07:53.880Z,57.82
2018-11-14T04:10:22.036Z,57.82
2018-11-14T04:12:50.220Z,58.35
2018-11-14T04:15:18.372Z,57.90
2018-11-14T04:17:46.500Z,57.85
2018-11-14T04:20:15.736Z,57.56
2018-11-14T04:22:44.060Z,58.20
2018-11-14T04:25:14.379Z,57.97
2018-11-14T04:27:43.440Z,58.10
2018-11-14T04:30:13.433Z,57.57
2018-11-14T04:32:42.116Z,58.64
2018-11-14T04:35:11.552Z,57.41
2018-11-14T04:37:39.769Z,58.12
2018-11-14T04:40:09.565Z,57.43
2018-11-14T04:42:38.047Z,57.48
2018-11-14T04:45:07.398Z,57.60
2018-11-14T04:47:35.670Z,57.86
2018-11-14T04:50:03.735Z,57.65
2018-11-14T04:52:31.824Z,57.40
2018-11-14T04:54:59.914Z,57.74
2018-11-14T04:57:27.951Z,57.28
2018-11-14T04:59:56.051Z,57.26
2018-11-14T05:02:24.202Z,57.20
2018-11-14T05:04:52.213Z,58.07
2018-11-14T05:07:20.264Z,56.95
2018-11-14T05:09:48.339Z,57.74
2018-11-14T05:12:16.415Z,58.02
2018-11-14T05:14:44.525Z,57.65
2018-11-14T05:17:12.565Z,57.13
2018-11-14T05:19:40.660Z,58.13
2018-11-14T05:22:08.711Z,58.04
2018-11-14T05:24:36.883Z,57.45
2018-11-14T05:27:05.046Z,57.69
2018-11-14T05:29:33.175Z,58.12
2018-11-14T05:32:01.285Z,58.68
2018-11-14T05:34:29.298Z,58.40
2018-11-14T05:36:57.460Z,57.89
2018-11-14T05:39:25.587Z,58.91
2018-11-14T05:41:53.628Z,58.39
2018-11-14T05:44:21.728Z,58.52
2018-11-14T05:46:49.792Z,58.36
2018-11-14T05:49:18.016Z,58.00
2018-11-14T05:51:46.071Z,58.44
2018-11-14T05:54:14.100Z,57.99
2018-11-14T05:56:42.147Z,58.99
2018-11-14T05:59:10.193Z,58.00
2018-11-14T06:01:38.272Z,57.89
2018-11-14T06:04:06.620Z,59.02
2018-11-14T06:06:34.693Z,58.74
2018-11-14T06:09:02.814Z,57.79
2018-11-14T06:11:30.872Z,58.66
2018-11-14T06:13:58.952Z,59.41
2018-11-14T06:16:26.988Z,58.79
2018-11-14T06:18:55.098Z,59.00
2018-11-14T06:21:23.190Z,58.28
2018-11-14T06:23:51.265Z,59.11
2018-11-14T06:26:20.212Z,59.30
2018-11-14T06:28:48.308Z,58.51
2018-11-14T06:31:16.372Z,58.24
2018-11-14T06:33:44.461Z,58.27
2018-11-14T06:36:12.551Z,58.16
2018-11-14T06:38:40.620Z,58.21
2018-11-14T06:41:08.704Z,58.62
2018-11-14T06:43:36.842Z,58.93
2018-11-14T06:46:05.174Z,57.21
2018-11-14T06:48:33.266Z,58.50
2018-11-14T06:51:01.340Z,57.47
2018-11-14T06:53:29.390Z,56.90
2018-11-14T06:55:57.464Z,56.76
2018-11-14T06:58:25.513Z,56.22
2018-11-14T07:00:53.584Z,57.16
2018-11-14T07:03:22.104Z,56.35
2018-11-14T07:05:50.229Z,56.36
2018-11-14T07:08:18.187Z,56.91
2018-11-14T07:10:46.638Z,56.58
2018-11-14T07:13:14.673Z,56.72
2018-11-14T07:15:43.268Z,56.56
2018-11-14T07:18:12.077Z,56.86
2018-11-14T07:20:41.428Z,57.10
2018-11-14T07:23:09.511Z,56.55
2018-11-14T07:25:37.608Z,55.82
2018-11-14T07:28:05.758Z,56.71
2018-11-14T07:30:34.512Z,56.13
2018-11-14T07:33:07.987Z,55.97
2018-11-14T07:35:36.140Z,55.77
2018-11-14T07:38:47.792Z,56.05
2018-11-14T07:41:17.362Z,57.26
2018-11-14T07:43:45.532Z,55.59
2018-11-14T07:46:14.064Z,55.53
2018-11-14T07:48:42.392Z,55.81
2018-11-14T07:51:10.597Z,54.70
2018-11-14T07:53:38.763Z,55.01
2018-11-14T07:56:06.835Z,54.70
2018-11-14T07:58:34.932Z,54.92
2018-11-14T08:01:03.049Z,55.04
2018-11-14T08:03:31.171Z,55.47
2018-11-14T08:05:59.401Z,54.30
2018-11-14T08:08:27.581Z,55.18
2018-11-14T08:10:55.655Z,54.41
2018-11-14T08:13:26.910Z,53.99
2018-11-14T08:15:56.744Z,54.08
2018-11-14T08:18:25.163Z,54.03
2018-11-14T08:20:53.377Z,53.63
2018-11-14T08:23:21.489Z,54.55
2018-11-14T08:25:49.664Z,53.65
2018-11-14T08:28:17.829Z,53.86
2018-11-14T08:30:46.370Z,53.56
2018-11-14T08:33:14.459Z,53.83
2018-11-14T08:35:42.660Z,53.54
2018-11-14T08:38:10.896Z,53.34
2018-11-14T08:40:39.073Z,53.60
2018-11-14T08:43:07.485Z,53.33
2018-11-14T08:45:35.804Z,53.76
2018-11-14T08:48:04.311Z,54.28
2018-11-14T08:50:32.447Z,53.78
2018-11-14T08:53:00.658Z,52.87
2018-11-14T08:55:28.800Z,52.08
2018-11-14T08:57:57.005Z,52.80
2018-11-14T09:00:26.110Z,52.76
2018-11-14T09:02:54.539Z,52.73
2018-11-14T09:05:22.854Z,53.13
2018-11-14T09:07:51.269Z,52.90
2018-11-14T09:10:21.504Z,53.30
2018-11-14T09:12:49.913Z,53.34
2018-11-14T09:15:19.409Z,53.69
2018-11-14T09:17:47.660Z,52.97
2018-11-14T09:20:17.192Z,53.09
2018-11-14T09:22:45.424Z,52.68
2018-11-14T09:25:15.371Z,53.21
2018-11-14T09:27:44.381Z,53.49
2018-11-14T09:30:14.759Z,54.08
2018-11-14T09:32:42.964Z,54.41
2018-11-14T09:35:12.386Z,54.55
2018-11-14T09:37:40.806Z,53.82
2018-11-14T09:40:09.996Z,53.09
2018-11-14T09:42:38.518Z,54.78
2018-11-14T09:45:08.280Z,53.69
2018-11-14T09:47:36.584Z,53.87
2018-11-14T09:50:05.754Z,52.95
2018-11-14T09:52:33.942Z,55.30
2018-11-14T09:55:02.069Z,52.49
2018-11-14T09:57:30.240Z,55.38
2018-11-14T09:59:58.362Z,55.34
2018-11-14T10:02:26.537Z,55.33
2018-11-14T10:04:54.723Z,55.11
2018-11-14T10:07:22.847Z,55.90
2018-11-14T10:09:50.922Z,55.09
2018-11-14T10:12:19.020Z,55.22
2018-11-14T10:14:47.204Z,55.88
2018-11-14T10:17:15.368Z,56.43
2018-11-14T10:19:43.581Z,56.10
2018-11-14T10:22:11.660Z,55.70
2018-11-14T10:24:40.204Z,55.87
2018-11-14T10:27:08.294Z,55.16
2018-11-14T10:29:36.386Z,55.69
2018-11-14T10:32:04.621Z,56.12
2018-11-14T10:34:32.780Z,56.20
2018-11-14T10:37:00.916Z,55.27
2018-11-14T10:39:29.056Z,56.11
2018-11-14T10:41:57.163Z,55.73
2018-11-14T10:44:25.249Z,55.92
2018-11-14T10:46:53.366Z,53.38
2018-11-14T10:49:21.440Z,54.32
2018-11-14T10:51:49.543Z,55.03
2018-11-14T10:54:17.631Z,53.85
2018-11-14T10:56:45.675Z,54.25
2018-11-14T10:59:13.730Z,54.64
2018-11-14T11:01:47.715Z,54.53
2018-11-14T11:04:21.148Z,55.04
2018-11-14T11:06:54.489Z,52.79
2018-11-14T11:09:27.958Z,53.52
2018-11-14T11:12:01.445Z,53.21
2018-11-14T11:14:32.150Z,54.00
2018-11-14T11:17:05.516Z,53.47
2018-11-14T11:19:33.617Z,53.47
2018-11-14T11:22:01.670Z,52.86
2018-11-14T11:24:29.740Z,52.72
2018-11-14T11:26:57.904Z,53.50
2018-11-14T11:29:26.023Z,52.96
2018-11-14T11:31:54.201Z,52.73
2018-11-14T11:34:22.348Z,52.87
2018-11-14T11:36:50.404Z,52.85
2018-11-14T11:39:19.305Z,53.68
2018-11-14T11:41:47.709Z,52.90
2018-11-14T11:44:15.868Z,52.75
2018-11-14T11:46:44.498Z,53.11
2018-11-14T11:49:12.815Z,53.15
2018-11-14T11:51:40.879Z,52.69
2018-11-14T11:54:09.218Z,52.71
2018-11-14T11:56:37.655Z,52.92
2018-11-14T11:59:06.414Z,54.06
2018-11-14T12:01:34.712Z,54.01
2018-11-14T12:04:02.751Z,54.02
2018-11-14T12:06:30.944Z,54.23
2018-11-14T12:08:58.947Z,55.04
2018-11-14T12:11:27.107Z,56.09
2018-11-14T12:13:55.366Z,55.36
2018-11-14T12:16:23.458Z,54.77
2018-11-14T12:18:51.528Z,55.31
2018-11-14T12:21:19.572Z,56.27
2018-11-14T12:23:47.718Z,57.53
2018-11-14T12:26:15.854Z,56.57
2018-11-14T12:28:44.133Z,55.66
2018-11-14T12:31:12.397Z,54.68
2018-11-14T12:33:40.339Z,54.91
2018-11-14T12:36:08.433Z,53.88
2018-11-14T12:38:36.543Z,54.06
2018-11-14T12:41:04.715Z,53.78
2018-11-14T12:43:32.831Z,53.25
2018-11-14T12:46:00.895Z,53.94
2018-11-14T12:48:29.533Z,54.18
2018-11-14T12:50:57.666Z,54.68
2018-11-14T12:53:25.761Z,52.67
2018-11-14T12:55:53.922Z,54.83
2018-11-14T12:58:22.076Z,54.09
2018-11-14T13:00:50.835Z,54.39
2018-11-14T13:03:19.000Z,53.11
2018-11-14T13:05:47.170Z,53.51
2018-11-14T13:08:15.215Z,54.12
2018-11-14T13:10:43.410Z,53.70
2018-11-14T13:13:11.546Z,53.96
2018-11-14T13:15:39.613Z,54.38
2018-11-14T13:18:07.685Z,54.55
2018-11-14T13:20:35.768Z,54.08
2018-11-14T13:23:03.820Z,53.42
2018-11-14T13:25:31.888Z,52.11
2018-11-14T13:27:59.978Z,52.43
2018-11-14T13:30:28.034Z,53.37
2018-11-14T13:32:56.080Z,52.36
2018-11-14T13:35:24.610Z,52.50
2018-11-14T13:37:52.773Z,54.15
2018-11-14T13:40:20.969Z,52.89
2018-11-14T13:42:49.141Z,54.17
2018-11-14T13:45:18.020Z,56.54
2018-11-14T13:47:46.116Z,56.08
2018-11-14T13:50:18.406Z,53.87
2018-11-14T13:52:46.282Z,53.92
2018-11-14T13:55:15.672Z,54.69
2018-11-14T13:57:44.871Z,54.55
2018-11-14T14:00:14.129Z,53.65
2018-11-14T14:02:42.903Z,51.90
2018-11-14T14:05:12.888Z,52.79
2018-11-14T14:07:40.976Z,52.72
2018-11-14T14:10:10.114Z,53.75
2018-11-14T14:12:38.274Z,51.81
2018-11-14T14:15:08.677Z,51.00
2018-11-14T14:17:36.730Z,52.85
2018-11-14T14:20:05.679Z,51.33
2018-11-14T14:22:33.788Z,51.95
2018-11-14T14:25:01.870Z,51.43
2018-11-14T14:27:29.941Z,52.51
2018-11-14T14:29:58.009Z,51.34
2018-11-14T14:32:26.520Z,50.77
2018-11-14T14:34:54.684Z,53.44
2018-11-14T14:37:22.867Z,54.62
2018-11-14T14:39:50.949Z,50.92
2018-11-14T14:42:19.013Z,52.20
2018-11-14T14:44:47.112Z,40.90
2018-11-14T14:47:15.268Z,39.68
2018-11-14T14:49:43.456Z,40.82
2018-11-14T14:52:11.547Z,45.02
2018-11-14T14:54:39.675Z,45.30
2018-11-14T14:57:07.765Z,45.74
2018-11-14T14:59:35.981Z,45.76
2018-11-14T15:02:04.189Z,46.22
2018-11-14T15:04:32.390Z,46.76
2018-11-14T15:07:00.508Z,47.16
2018-11-14T15:09:29.453Z,47.71
2018-11-14T15:11:57.542Z,47.71
2018-11-14T15:14:25.604Z,48.95
2018-11-14T15:16:53.733Z,49.00
2018-11-14T15:19:21.793Z,51.22
2018-11-14T15:21:49.895Z,47.52
2018-11-14T15:24:18.103Z,49.50
2018-11-14T15:26:46.361Z,50.88
2018-11-14T15:29:14.526Z,53.86
2018-11-14T15:31:42.797Z,55.57
2018-11-14T15:34:10.948Z,54.04
2018-11-14T15:36:39.158Z,54.40
2018-11-14T15:39:08.890Z,54.49
2018-11-14T15:41:37.782Z,55.90
2018-11-14T15:44:05.907Z,56.53
2018-11-14T15:46:34.084Z,56.24
2018-11-14T15:49:02.615Z,56.76
2018-11-14T15:51:30.867Z,56.66
2018-11-14T15:53:59.128Z,55.31
2018-11-14T15:56:27.573Z,56.96
2018-11-14T15:58:55.659Z,55.65
2018-11-14T16:01:23.823Z,55.50
2018-11-14T16:03:52.517Z,54.76
2018-11-14T16:06:20.686Z,54.45
2018-11-14T16:08:48.747Z,54.17
2018-11-14T16:11:16.808Z,53.56
2018-11-14T16:13:49.064Z,53.09
2018-11-14T16:16:17.174Z,52.09
2018-11-14T16:18:45.260Z,53.28
2018-11-14T16:21:13.309Z,51.28
2018-11-14T16:23:41.498Z,52.55
2018-11-14T16:26:09.569Z,52.34
2018-11-14T16:28:37.889Z,52.44
2018-11-14T16:31:06.440Z,51.34
2018-11-14T16:33:35.864Z,52.70
2018-11-14T16:36:04.234Z,52.24
2018-11-14T16:38:32.345Z,52.75
2018-11-14T16:41:00.416Z,51.76
2018-11-14T16:43:28.564Z,51.72
2018-11-14T16:45:56.680Z,51.17
2018-11-14T16:48:24.752Z,51.06
2018-11-14T16:50:52.876Z,51.90
2018-11-14T16:53:21.039Z,51.34
2018-11-14T16:55:49.320Z,51.43
2018-11-14T16:58:17.371Z,50.30
2018-11-14T17:00:45.440Z,51.11
2018-11-14T17:03:13.548Z,51.36
2018-11-14T17:05:41.636Z,51.06
2018-11-14T17:08:09.735Z,51.04
2018-11-14T17:10:37.975Z,51.30
2018-11-14T17:13:06.212Z,50.38
2018-11-14T17:15:34.258Z,51.27
2018-11-14T17:18:02.593Z,50.75
2018-11-14T17:20:30.768Z,51.83
2018-11-14T17:22:58.860Z,49.86
2018-11-14T17:25:26.978Z,50.04
2018-11-14T17:27:55.172Z,50.29
2018-11-14T17:30:24.739Z,49.79
2018-11-14T17:32:53.260Z,51.08
2018-11-14T17:35:21.349Z,52.46
2018-11-14T17:37:49.733Z,51.79
2018-11-14T17:40:27.976Z,50.69
2018-11-14T17:42:56.169Z,49.12
2018-11-14T17:45:25.747Z,48.99
2018-11-14T17:47:54.293Z,48.52
2018-11-14T17:50:23.780Z,47.89
2018-11-14T17:52:52.953Z,46.66
2018-11-14T17:55:21.801Z,47.73
2018-11-14T17:57:49.903Z,47.46
2018-11-14T18:00:20.248Z,45.99
2018-11-14T18:02:48.523Z,46.68
2018-11-14T18:05:17.780Z,46.20
2018-11-14T18:07:46.501Z,45.85
2018-11-14T18:10:15.753Z,46.24
2018-11-14T18:12:44.704Z,46.02
2018-11-14T18:15:12.996Z,46.71
2018-11-14T18:17:41.641Z,46.68
2018-11-14T18:20:12.012Z,46.08
2018-11-14T18:22:41.605Z,46.37
2018-11-14T18:25:10.100Z,45.78
2018-11-14T18:27:38.186Z,46.22
2018-11-14T18:30:09.093Z,45.77
2018-11-14T18:32:37.065Z,45.32
2018-11-14T18:35:06.964Z,46.16
2018-11-14T18:37:35.054Z,45.53
2018-11-14T18:40:03.218Z,44.89
2018-11-14T18:42:31.304Z,44.28
2018-11-14T18:45:00.120Z,45.77
2018-11-14T18:47:28.546Z,44.97
2018-11-14T18:49:56.904Z,46.37
2018-11-14T18:52:25.022Z,46.86
2018-11-14T18:54:53.116Z,46.61
2018-11-14T18:57:21.413Z,46.29
2018-11-14T18:59:49.594Z,46.15
2018-11-14T19:02:17.772Z,47.85
2018-11-14T19:04:45.934Z,47.36
2018-11-14T19:07:14.016Z,47.93
2018-11-14T19:09:42.201Z,48.01
2018-11-14T19:12:10.298Z,47.61
2018-11-14T19:14:38.468Z,48.73
2018-11-14T19:17:06.601Z,47.83
2018-11-14T19:19:34.832Z,48.53
2018-11-14T19:22:02.984Z,48.13
2018-11-14T19:24:31.168Z,48.62
2018-11-14T19:26:59.317Z,49.64
2018-11-14T19:29:27.516Z,48.77
2018-11-14T19:31:55.671Z,49.67
2018-11-14T19:34:23.988Z,48.80
2018-11-14T19:36:52.206Z,49.74
2018-11-14T19:39:20.292Z,49.28
2018-11-14T19:41:48.496Z,49.86
2018-11-14T19:44:16.828Z,48.95
2018-11-14T19:46:44.891Z,49.19
2018-11-14T19:49:13.286Z,49.26
2018-11-14T19:51:41.446Z,49.67
2018-11-14T19:54:09.600Z,49.39
2018-11-14T19:56:37.740Z,50.66
2018-11-14T19:59:05.940Z,50.28
2018-11-14T20:01:33.983Z,49.76
2018-11-14T20:04:02.077Z,49.10
2018-11-14T20:06:30.197Z,49.08
2018-11-14T20:08:58.457Z,49.75
2018-11-14T20:11:26.572Z,50.47
2018-11-14T20:13:54.754Z,49.61
2018-11-14T20:16:22.963Z,49.82
2018-11-14T20:18:51.105Z,49.78
2018-11-14T20:21:19.338Z,49.70
2018-11-14T20:23:47.597Z,50.96
2018-11-14T20:26:15.734Z,49.79
2018-11-14T20:28:43.904Z,50.70
2018-11-14T20:31:12.069Z,49.57
2018-11-14T20:33:40.199Z,50.61
2018-11-14T20:36:08.344Z,49.11
2018-11-14T20:38:36.446Z,49.39
2018-11-14T20:41:04.676Z,50.79
2018-11-14T20:43:32.907Z,50.00
2018-11-14T20:46:00.969Z,51.38
2018-11-14T20:48:29.060Z,49.26
2018-11-14T20:50:57.209Z,49.65
2018-11-14T20:53:25.565Z,50.94
2018-11-14T20:55:53.702Z,49.63
2018-11-14T20:58:21.756Z,49.72
2018-11-14T21:00:49.908Z,49.62
2018-11-14T21:03:18.023Z,49.63
2018-11-14T21:05:46.226Z,49.24
2018-11-14T21:08:14.320Z,49.13
2018-11-14T21:10:42.411Z,49.81
2018-11-14T21:13:10.499Z,49.99
2018-11-14T21:15:39.608Z,49.27
2018-11-14T21:18:08.012Z,50.30
2018-11-14T21:20:36.196Z,49.28
2018-11-14T21:23:04.428Z,50.54
2018-11-14T21:25:32.510Z,49.26
2018-11-14T21:28:00.584Z,49.94
2018-11-14T21:30:29.413Z,50.45
2018-11-14T21:32:57.488Z,50.81
2018-11-14T21:35:29.056Z,49.91
2018-11-14T21:37:59.185Z,50.25
2018-11-14T21:40:27.443Z,50.90
2018-11-14T21:42:55.677Z,50.65
2018-11-14T21:45:24.920Z,50.08
2018-11-14T21:47:58.788Z,50.96
2018-11-14T21:50:27.836Z,49.90
2018-11-14T21:52:56.033Z,50.58
2018-11-14T21:55:24.147Z,50.78
2018-11-14T21:57:52.226Z,50.74
2018-11-14T22:00:22.603Z,49.94
2018-11-14T22:02:51.903Z,51.82
2018-11-14T22:05:19.995Z,49.92
2018-11-14T22:07:48.041Z,50.62
2018-11-14T22:10:19.302Z,50.46
2018-11-14T22:12:47.775Z,51.38
2018-11-14T22:15:16.988Z,51.63
2018-11-14T22:17:45.135Z,51.17
2018-11-14T22:20:14.307Z,50.95
2018-11-14T22:22:43.133Z,51.70
2018-11-14T22:25:12.156Z,51.20
2018-11-14T22:27:40.377Z,51.29
2018-11-14T22:30:10.478Z,50.95
2018-11-14T22:32:38.548Z,51.64
2018-11-14T22:35:07.741Z,50.83
2018-11-14T22:37:35.768Z,51.49
2018-11-14T22:40:04.051Z,51.96
2018-11-14T22:42:32.189Z,51.36
2018-11-14T22:45:00.345Z,52.05
2018-11-14T22:47:28.424Z,51.64
2018-11-14T22:49:57.259Z,52.40
2018-11-14T22:52:25.289Z,51.62
2018-11-14T22:54:53.422Z,51.19
2018-11-14T22:57:21.520Z,52.40
2018-11-14T22:59:49.575Z,50.43
2018-11-14T23:02:17.654Z,52.83
2018-11-14T23:04:45.743Z,51.46
2018-11-14T23:07:13.835Z,51.46
2018-11-14T23:09:41.932Z,52.89
2018-11-14T23:12:09.993Z,52.18
2018-11-14T23:14:38.042Z,51.43
2018-11-14T23:17:06.262Z,51.77
2018-11-14T23:19:34.354Z,52.36
2018-11-14T23:22:02.432Z,52.21
2018-11-14T23:24:30.500Z,51.77
2018-11-14T23:26:59.092Z,52.16
2018-11-14T23:29:27.131Z,52.44
2018-11-14T23:31:55.187Z,51.47
2018-11-14T23:34:23.297Z,52.00
2018-11-14T23:36:51.372Z,52.49
2018-11-14T23:39:19.490Z,52.98
2018-11-14T23:41:47.566Z,52.70
2018-11-14T23:44:15.622Z,51.59
2018-11-14T23:46:43.677Z,51.94
2018-11-14T23:49:11.761Z,52.36
2018-11-14T23:51:39.822Z,51.62
2018-11-14T23:54:07.850Z,52.53
2018-11-14T23:56:35.900Z,52.54
2018-11-14T23:59:03.946Z,53.50
